Time;durP1;ratioP1;P1;durP2;ratioP2;P2;SDS_P1;SDS_P2;PMS_P1;PMS_P2;Temp;Humidity;BMP_temperature;BMP_pressure;BME280_temperature;BME280_humidity;BME280_pressure;Samples;Min_cycle;Max_cycle;Signal;HPM_P1;HPM_P2
2021/05/16 00:02:15;;;;;;;;;;;7.60;99.90;;;;;;8340975;28;19909;-68
2021/05/16 00:06:16;;;;;;;;;;;7.60;99.90;;;;;;8340749;28;20342;-68
2021/05/16 00:10:17;;;;;;;;;;;7.60;99.90;;;;;;8342215;28;19908;-68
2021/05/16 00:14:17;;;;;;;;;;;7.60;99.90;;;;;;8344628;28;20391;-68
2021/05/16 00:18:18;;;;;;;;;;;7.60;99.90;;;;;;8346793;28;19912;-68
2021/05/16 00:22:19;;;;;;;;;;;7.60;99.90;;;;;;8342920;28;19909;-68
2021/05/16 00:26:19;;;;;;;;;;;7.60;99.90;;;;;;8344921;28;19916;-68
2021/05/16 00:30:20;;;;;;;;;;;7.60;99.90;;;;;;8341707;28;19948;-67
2021/05/16 00:34:21;;;;;;;;;;;7.50;99.90;;;;;;8342548;28;19923;-68
2021/05/16 00:38:21;;;;;;;;;;;7.50;99.90;;;;;;8343089;28;20377;-68
2021/05/16 00:42:22;;;;;;;;;;;7.40;99.90;;;;;;8340205;28;19909;-68
2021/05/16 00:46:23;;;;;;;;;;;7.50;99.90;;;;;;8344512;28;19921;-68
2021/05/16 00:50:31;;;;;;;;;;;7.40;99.90;;;;;;8343363;28;20281;-68
2021/05/16 00:54:31;;;;;;;;;;;7.40;99.90;;;;;;8342336;28;20015;-67
2021/05/16 00:58:32;;;;;;;;;;;7.50;99.90;;;;;;8342529;28;19913;-68
2021/05/16 01:02:33;;;;;;;;;;;7.50;99.90;;;;;;8322286;28;19916;-68
2021/05/16 01:06:33;;;;;;;;;;;7.50;99.90;;;;;;8323823;28;19924;-67
2021/05/16 01:10:34;;;;;;;;;;;7.60;99.90;;;;;;8343477;28;19924;-68
2021/05/16 01:14:45;;;;;;;;;;;7.80;99.90;;;;;;8338752;28;19909;-68
2021/05/16 01:18:46;;;;;;;;;;;7.80;99.90;;;;;;8340452;28;20448;-68
2021/05/16 01:23:00;;;;;;;;;;;8.00;99.90;;;;;;8341500;28;19909;-67
2021/05/16 01:27:02;;;;;;;;;;;8.00;99.90;;;;;;8340645;28;19916;-67
2021/05/16 01:31:03;;;;;;;;;;;8.10;99.90;;;;;;8340605;28;19913;-68
2021/05/16 01:35:03;;;;;;;;;;;8.10;99.90;;;;;;8340123;28;20397;-68
2021/05/16 01:39:06;;;;;;;;;;;8.10;99.90;;;;;;8325544;28;19913;-68
2021/05/16 01:43:10;;;;;;;;;;;8.10;99.90;;;;;;8345444;28;19909;-68
2021/05/16 01:47:10;;;;;;;;;;;8.10;99.90;;;;;;8339506;28;19913;-67
2021/05/16 01:51:12;;;;;;;;;;;8.10;99.90;;;;;;8346006;28;19917;-68
2021/05/16 01:55:13;;;;;;;;;;;8.10;99.90;;;;;;8331229;28;19952;-67
2021/05/16 01:59:14;;;;;;;;;;;8.10;99.90;;;;;;8347534;28;19956;-67
2021/05/16 02:03:15;;;;;;;;;;;8.10;99.90;;;;;;8348673;28;19912;-68
2021/05/16 02:07:16;;;;;;;;;;;8.00;99.90;;;;;;8346928;28;20307;-68
2021/05/16 02:11:16;;;;;;;;;;;8.10;99.90;;;;;;8346866;28;20354;-67
2021/05/16 02:15:17;;;;;;;;;;;8.00;99.90;;;;;;8346810;28;19959;-68
2021/05/16 02:19:17;;;;;;;;;;;8.00;99.90;;;;;;8347327;28;19917;-68
2021/05/16 02:23:18;;;;;;;;;;;8.00;99.90;;;;;;8348551;28;19935;-68
2021/05/16 02:27:18;;;;;;;;;;;8.00;99.90;;;;;;8347375;28;20368;-67
2021/05/16 02:31:19;;;;;;;;;;;8.00;99.90;;;;;;8344790;28;19940;-67
2021/05/16 02:35:20;;;;;;;;;;;8.10;99.90;;;;;;8348971;28;20008;-68
2021/05/16 02:39:20;;;;;;;;;;;8.20;99.90;;;;;;8347866;28;19917;-68
2021/05/16 02:43:21;;;;;;;;;;;8.20;99.90;;;;;;8347712;28;19916;-67
2021/05/16 02:47:21;;;;;;;;;;;8.20;99.90;;;;;;8344254;28;19916;-68
2021/05/16 02:51:22;;;;;;;;;;;8.30;99.90;;;;;;8346774;28;19909;-68
2021/05/16 02:55:23;;;;;;;;;;;8.30;99.90;;;;;;8344978;28;19920;-68
2021/05/16 02:59:25;;;;;;;;;;;8.30;99.90;;;;;;8330776;28;19916;-68
2021/05/16 03:03:26;;;;;;;;;;;8.30;99.90;;;;;;8346135;28;19912;-68
2021/05/16 03:07:26;;;;;;;;;;;8.40;99.90;;;;;;8345863;28;20006;-68
2021/05/16 03:11:27;;;;;;;;;;;8.30;99.90;;;;;;8345655;28;19963;-67
2021/05/16 03:15:27;;;;;;;;;;;8.40;99.90;;;;;;8340855;28;19909;-67
2021/05/16 03:19:28;;;;;;;;;;;8.30;99.90;;;;;;8348621;28;19919;-67
2021/05/16 03:23:28;;;;;;;;;;;8.20;99.90;;;;;;8343431;28;19916;-67
2021/05/16 03:27:29;;;;;;;;;;;8.20;99.90;;;;;;8347241;28;19916;-68
2021/05/16 03:31:29;;;;;;;;;;;8.20;99.90;;;;;;8328293;28;19970;-68
2021/05/16 03:35:30;;;;;;;;;;;8.20;99.90;;;;;;8345371;28;19946;-68
2021/05/16 03:39:30;;;;;;;;;;;8.20;99.90;;;;;;8345311;28;19916;-68
2021/05/16 03:43:31;;;;;;;;;;;8.30;99.90;;;;;;8326131;28;20356;-68
2021/05/16 03:47:31;;;;;;;;;;;8.30;99.90;;;;;;8345196;28;19908;-68
2021/05/16 03:51:32;;;;;;;;;;;8.20;99.90;;;;;;8326706;28;20523;-68
2021/05/16 03:55:33;;;;;;;;;;;8.10;99.90;;;;;;8345299;28;20418;-67
2021/05/16 03:59:33;;;;;;;;;;;8.20;99.90;;;;;;8344182;28;19966;-68
2021/05/16 04:03:34;;;;;;;;;;;8.30;99.90;;;;;;8343650;28;19913;-68
2021/05/16 04:07:34;;;;;;;;;;;8.30;99.90;;;;;;8344824;28;19956;-67
2021/05/16 04:11:35;;;;;;;;;;;8.40;99.90;;;;;;8345260;28;19909;-68
2021/05/16 04:15:35;;;;;;;;;;;8.30;99.90;;;;;;8341514;28;19924;-68
2021/05/16 04:19:36;;;;;;;;;;;8.40;99.90;;;;;;8345099;28;19917;-68
2021/05/16 04:23:37;;;;;;;;;;;8.50;99.90;;;;;;8343343;28;19999;-68
2021/05/16 04:27:37;;;;;;;;;;;8.50;99.90;;;;;;8342582;28;19909;-68
2021/05/16 04:31:38;;;;;;;;;;;8.60;99.90;;;;;;8324763;28;19925;-68
2021/05/16 04:35:39;;;;;;;;;;;8.70;99.90;;;;;;8344831;28;19913;-68
2021/05/16 04:39:39;;;;;;;;;;;8.70;99.90;;;;;;8339035;28;19913;-68
2021/05/16 04:43:40;;;;;;;;;;;8.80;99.90;;;;;;8327394;28;20131;-68
2021/05/16 04:47:40;;;;;;;;;;;8.90;99.90;;;;;;8344791;28;19939;-68
2021/05/16 04:51:41;;;;;;;;;;;9.00;99.90;;;;;;8340537;28;19909;-68
2021/05/16 04:55:41;;;;;;;;;;;9.10;99.90;;;;;;8341948;28;19913;-68
2021/05/16 04:59:42;;;;;;;;;;;9.20;99.90;;;;;;8342926;28;20375;-68
2021/05/16 05:03:42;;;;;;;;;;;9.10;99.90;;;;;;8341748;28;19967;-67
2021/05/16 05:07:43;;;;;;;;;;;9.10;99.90;;;;;;8341785;28;19913;-68
2021/05/16 05:11:43;;;;;;;;;;;9.10;99.90;;;;;;8354428;28;19912;-67
2021/05/16 05:15:44;;;;;;;;;;;9.20;99.90;;;;;;8325904;28;19919;-68
2021/05/16 05:19:45;;;;;;;;;;;9.40;99.90;;;;;;8339545;28;19912;-68
2021/05/16 05:23:45;;;;;;;;;;;9.60;99.90;;;;;;8348653;28;19917;-68
2021/05/16 05:27:46;;;;;;;;;;;9.70;99.90;;;;;;8333763;28;19913;-68
2021/05/16 05:31:47;;;;;;;;;;;9.80;99.90;;;;;;8337784;28;19935;-68
2021/05/16 05:35:47;;;;;;;;;;;9.70;99.90;;;;;;8355866;28;19913;-69
2021/05/16 05:39:48;;;;;;;;;;;9.70;99.90;;;;;;8358123;28;20023;-69
2021/05/16 05:43:48;;;;;;;;;;;9.70;99.90;;;;;;8358236;28;19913;-69
2021/05/16 05:47:49;;;;;;;;;;;9.90;99.90;;;;;;8358408;28;19912;-69
2021/05/16 05:51:49;;;;;;;;;;;10.30;99.90;;;;;;8334753;28;19917;-69
2021/05/16 05:55:50;;;;;;;;;;;10.30;99.90;;;;;;8339244;28;20112;-69
2021/05/16 05:59:50;;;;;;;;;;;10.30;99.90;;;;;;8334307;28;20302;-66
2021/05/16 06:03:51;;;;;;;;;;;10.50;99.90;;;;;;8327070;28;19917;-67
2021/05/16 06:07:52;;;;;;;;;;;10.60;99.90;;;;;;8346712;28;20437;-66
2021/05/16 06:11:52;;;;;;;;;;;10.60;99.90;;;;;;8341815;28;19963;-67
2021/05/16 06:15:53;;;;;;;;;;;10.50;99.90;;;;;;8341425;28;19916;-67
2021/05/16 06:19:53;;;;;;;;;;;10.70;99.90;;;;;;8347480;28;19921;-66
2021/05/16 06:24:15;;;;;;;;;;;10.90;99.90;;;;;;8325705;28;20383;-67
2021/05/16 06:28:15;;;;;;;;;;;11.00;99.90;;;;;;8330284;28;19959;-67
2021/05/16 06:32:15;;;;;;;;;;;10.90;99.90;;;;;;8357607;28;20003;-67
2021/05/16 06:36:16;;;;;;;;;;;11.30;99.90;;;;;;8352640;28;19982;-67
2021/05/16 06:40:16;;;;;;;;;;;11.60;99.90;;;;;;8362545;28;19955;-67
2021/05/16 06:44:17;;;;;;;;;;;11.70;99.90;;;;;;8361883;28;20429;-67
2021/05/16 06:48:17;;;;;;;;;;;11.80;99.90;;;;;;8360083;28;19962;-67
2021/05/16 06:52:18;;;;;;;;;;;12.10;99.90;;;;;;8362211;28;19955;-67
2021/05/16 06:56:19;;;;;;;;;;;12.10;99.90;;;;;;8332233;28;19917;-67
2021/05/16 07:00:20;;;;;;;;;;;12.20;99.90;;;;;;8330605;28;19924;-67
2021/05/16 07:04:20;;;;;;;;;;;12.50;99.90;;;;;;8344587;28;19924;-66
2021/05/16 07:08:21;;;;;;;;;;;12.50;99.90;;;;;;8350218;28;19916;-66
2021/05/16 07:12:21;;;;;;;;;;;12.50;99.90;;;;;;8351119;28;19967;-65
2021/05/16 07:16:22;;;;;;;;;;;12.40;99.90;;;;;;8347969;28;19952;-65
2021/05/16 07:20:22;;;;;;;;;;;12.60;99.90;;;;;;8362814;28;19908;-66
2021/05/16 07:24:23;;;;;;;;;;;12.40;99.90;;;;;;8337373;28;19913;-66
2021/05/16 07:28:24;;;;;;;;;;;12.50;99.90;;;;;;8360662;28;19966;-66
2021/05/16 07:32:24;;;;;;;;;;;12.70;99.90;;;;;;8327168;28;19913;-68
2021/05/16 07:36:25;;;;;;;;;;;12.70;99.90;;;;;;8357105;28;19921;-68
2021/05/16 07:40:26;;;;;;;;;;;12.90;99.90;;;;;;8361932;28;19913;-65
2021/05/16 07:44:26;;;;;;;;;;;13.90;99.90;;;;;;8353142;28;19924;-66
2021/05/16 07:48:30;;;;;;;;;;;14.10;99.90;;;;;;8330460;28;19913;-66
2021/05/16 07:52:30;;;;;;;;;;;14.00;99.90;;;;;;8360316;28;20206;-66
2021/05/16 07:56:31;;;;;;;;;;;13.60;99.90;;;;;;8343906;28;19925;-65
2021/05/16 08:00:31;;;;;;;;;;;13.50;99.90;;;;;;8360733;28;19913;-67
2021/05/16 08:04:32;;;;;;;;;;;13.40;99.90;;;;;;8359745;28;19916;-67
2021/05/16 08:08:32;;;;;;;;;;;13.80;99.90;;;;;;8359988;28;19919;-67
2021/05/16 08:12:33;;;;;;;;;;;13.70;99.90;;;;;;8360526;28;19917;-67
2021/05/16 08:16:34;;;;;;;;;;;13.50;99.90;;;;;;8361130;28;19925;-67
2021/05/16 08:20:35;;;;;;;;;;;13.70;99.90;;;;;;8361627;28;20434;-67
2021/05/16 08:24:39;;;;;;;;;;;14.00;99.90;;;;;;8354216;28;19920;-67
2021/05/16 08:28:39;;;;;;;;;;;14.50;99.90;;;;;;8351530;28;19913;-67
2021/05/16 08:32:40;;;;;;;;;;;14.60;99.90;;;;;;8347459;28;19920;-67
2021/05/16 08:36:40;;;;;;;;;;;14.20;99.90;;;;;;8358739;28;19928;-68
2021/05/16 08:40:41;;;;;;;;;;;14.00;99.90;;;;;;8357079;28;19987;-69
2021/05/16 08:44:42;;;;;;;;;;;14.10;99.90;;;;;;8351715;28;19921;-69
2021/05/16 08:48:42;;;;;;;;;;;14.40;99.90;;;;;;8352463;28;20570;-68
2021/05/16 08:52:43;;;;;;;;;;;14.80;99.90;;;;;;8346749;28;20482;-68
2021/05/16 08:56:47;;;;;;;;;;;14.70;99.90;;;;;;8355307;28;19916;-68
2021/05/16 09:00:48;;;;;;;;;;;14.20;99.90;;;;;;8357549;28;19927;-68
2021/05/16 09:04:49;;;;;;;;;;;14.30;99.90;;;;;;8356186;28;19921;-68
2021/05/16 09:08:49;;;;;;;;;;;14.20;99.90;;;;;;8356167;28;19913;-69
2021/05/16 09:12:50;;;;;;;;;;;14.50;99.90;;;;;;8352941;28;20279;-68
2021/05/16 09:16:50;;;;;;;;;;;14.40;99.90;;;;;;8356336;28;19977;-69
2021/05/16 09:20:51;;;;;;;;;;;14.50;99.90;;;;;;8356473;28;20379;-69
2021/05/16 09:25:03;;;;;;;;;;;14.40;99.90;;;;;;8356111;28;19920;-69
2021/05/16 09:29:16;;;;;;;;;;;14.70;99.90;;;;;;8351559;28;19919;-68
2021/05/16 09:33:17;;;;;;;;;;;14.90;99.90;;;;;;8357695;28;19909;-68
2021/05/16 09:37:17;;;;;;;;;;;14.90;99.90;;;;;;8353980;28;19917;-70
2021/05/16 09:41:18;;;;;;;;;;;15.10;99.90;;;;;;8344779;28;19936;-69
2021/05/16 09:45:18;;;;;;;;;;;15.10;99.90;;;;;;8349762;28;19952;-69
2021/05/16 09:49:24;;;;;;;;;;;15.50;99.90;;;;;;8355464;28;19912;-68
2021/05/16 09:53:25;;;;;;;;;;;15.60;99.90;;;;;;8355863;28;19967;-69
2021/05/16 09:57:27;;;;;;;;;;;15.70;99.90;;;;;;8340462;28;19913;-68
2021/05/16 10:01:28;;;;;;;;;;;15.80;99.90;;;;;;8358314;28;19908;-69
2021/05/16 10:05:29;;;;;;;;;;;15.80;99.90;;;;;;8357699;28;19920;-69
2021/05/16 10:09:29;;;;;;;;;;;15.80;99.90;;;;;;8359283;28;19908;-68
2021/05/16 10:13:32;;;;;;;;;;;15.70;99.90;;;;;;8341562;28;20368;-69
2021/05/16 10:17:34;;;;;;;;;;;15.80;99.90;;;;;;8331502;28;19920;-68
2021/05/16 10:21:34;;;;;;;;;;;15.60;99.90;;;;;;8331435;28;19909;-69
2021/05/16 10:25:39;;;;;;;;;;;15.60;99.90;;;;;;8339392;28;20006;-69
2021/05/16 10:29:45;;;;;;;;;;;16.00;99.90;;;;;;8324720;28;19913;-69
2021/05/16 10:33:46;;;;;;;;;;;16.10;99.90;;;;;;8342381;28;20014;-69
2021/05/16 10:37:46;;;;;;;;;;;16.10;99.90;;;;;;8353082;28;19913;-69
2021/05/16 10:42:07;;;;;;;;;;;16.60;99.90;;;;;;8333377;28;19952;-69
2021/05/16 10:46:26;;;;;;;;;;;16.70;99.90;;;;;;8328628;28;19920;-69
2021/05/16 10:50:27;;;;;;;;;;;17.00;99.90;;;;;;8350843;28;20287;-69
2021/05/16 10:54:28;;;;;;;;;;;16.70;99.90;;;;;;8349738;28;19913;-68
2021/05/16 10:58:31;;;;;;;;;;;16.70;99.90;;;;;;8356606;28;19917;-68
2021/05/16 11:02:50;;;;;;;;;;;16.90;99.90;;;;;;8356485;28;19912;-68
2021/05/16 11:06:51;;;;;;;;;;;17.40;99.90;;;;;;8360552;28;20369;-67
2021/05/16 11:10:52;;;;;;;;;;;17.20;99.90;;;;;;8342131;28;19919;-68
2021/05/16 11:14:52;;;;;;;;;;;17.30;99.90;;;;;;8344125;28;20382;-68
2021/05/16 11:18:53;;;;;;;;;;;17.00;99.90;;;;;;8361657;28;20461;-67
2021/05/16 11:22:56;;;;;;;;;;;17.10;99.90;;;;;;8360287;28;19960;-69
2021/05/16 11:26:56;;;;;;;;;;;18.50;97.70;;;;;;8334192;28;19913;-68
2021/05/16 11:30:57;;;;;;;;;;;20.30;95.80;;;;;;8344773;28;19920;-70
2021/05/16 11:35:01;;;;;;;;;;;21.90;84.30;;;;;;8346810;28;19920;-69
2021/05/16 11:39:03;;;;;;;;;;;21.10;82.10;;;;;;8353273;28;19916;-69
2021/05/16 11:43:06;;;;;;;;;;;19.30;88.30;;;;;;8347722;28;19913;-68
2021/05/16 11:47:07;;;;;;;;;;;17.80;92.00;;;;;;8357948;28;19916;-67
2021/05/16 11:51:14;;;;;;;;;;;16.90;94.40;;;;;;8360848;28;19917;-68
2021/05/16 11:55:15;;;;;;;;;;;16.50;94.60;;;;;;8359234;28;19919;-68
2021/05/16 11:59:15;;;;;;;;;;;16.80;95.80;;;;;;8360385;28;20225;-68
2021/05/16 12:03:16;;;;;;;;;;;18.40;94.80;;;;;;8356403;28;19919;-68
2021/05/16 12:07:26;;;;;;;;;;;19.00;91.30;;;;;;8347186;28;19924;-69
2021/05/16 12:11:29;;;;;;;;;;;19.10;90.20;;;;;;8359589;28;20007;-68
2021/05/16 12:15:29;;;;;;;;;;;18.20;90.80;;;;;;8355918;28;19916;-68
2021/05/16 12:19:31;;;;;;;;;;;17.50;92.90;;;;;;8324108;28;20386;-67
2021/05/16 12:23:32;;;;;;;;;;;17.60;93.40;;;;;;8350896;28;19916;-68
2021/05/16 12:27:32;;;;;;;;;;;18.80;94.10;;;;;;8337116;28;19920;-67
2021/05/16 12:31:37;;;;;;;;;;;19.20;92.40;;;;;;8327295;28;19915;-67
2021/05/16 12:35:38;;;;;;;;;;;19.40;90.50;;;;;;8352686;28;19908;-68
2021/05/16 12:39:42;;;;;;;;;;;18.80;90.90;;;;;;8332638;28;19917;-67
2021/05/16 12:43:43;;;;;;;;;;;17.90;90.30;;;;;;8327225;28;19909;-68
2021/05/16 12:47:57;;;;;;;;;;;17.90;91.20;;;;;;8327051;28;19917;-67
2021/05/16 12:52:04;;;;;;;;;;;18.70;90.30;;;;;;8327376;28;19913;-67
2021/05/16 12:56:22;;;;;;;;;;;19.60;87.60;;;;;;8326995;28;20008;-68
2021/05/16 13:00:30;;;;;;;;;;;18.00;86.80;;;;;;8331803;28;19916;-67
2021/05/16 13:04:32;;;;;;;;;;;17.20;90.50;;;;;;8313129;28;19917;-67
2021/05/16 13:08:35;;;;;;;;;;;16.50;94.40;;;;;;8332324;28;19917;-67
2021/05/16 13:12:35;;;;;;;;;;;16.00;94.50;;;;;;8308482;28;19913;-67
2021/05/16 13:16:37;;;;;;;;;;;15.50;96.20;;;;;;8326714;28;19917;-67
2021/05/16 13:20:37;;;;;;;;;;;15.20;96.80;;;;;;8344508;28;19912;-67
2021/05/16 13:24:47;;;;;;;;;;;14.60;99.20;;;;;;8359368;28;20383;-67
2021/05/16 13:28:47;;;;;;;;;;;14.50;99.10;;;;;;8359670;28;19909;-67
2021/05/16 13:32:48;;;;;;;;;;;14.30;99.90;;;;;;8358857;28;19960;-67
2021/05/16 13:36:50;;;;;;;;;;;14.40;99.90;;;;;;8358522;28;20367;-67
2021/05/16 13:40:51;;;;;;;;;;;14.40;99.90;;;;;;8351852;28;19923;-67
2021/05/16 13:44:51;;;;;;;;;;;14.20;99.90;;;;;;8354231;28;19917;-67
2021/05/16 13:48:52;;;;;;;;;;;14.10;99.90;;;;;;8326916;28;19916;-67
2021/05/16 13:52:53;;;;;;;;;;;13.80;99.90;;;;;;8333074;28;19920;-67
2021/05/16 13:56:53;;;;;;;;;;;13.80;99.90;;;;;;8322158;28;19953;-67
2021/05/16 14:00:54;;;;;;;;;;;13.60;99.90;;;;;;8341383;28;19967;-67
2021/05/16 14:04:55;;;;;;;;;;;13.50;99.90;;;;;;8334878;28;19920;-67
2021/05/16 14:08:55;;;;;;;;;;;14.00;99.90;;;;;;8345804;28;19913;-67
2021/05/16 14:12:56;;;;;;;;;;;14.30;99.90;;;;;;8354586;28;19970;-67
2021/05/16 14:16:56;;;;;;;;;;;14.10;99.90;;;;;;8351458;28;20441;-68
2021/05/16 14:20:57;;;;;;;;;;;14.30;99.90;;;;;;8325222;28;19917;-67
2021/05/16 14:24:58;;;;;;;;;;;14.40;99.90;;;;;;8335172;28;19916;-68
2021/05/16 14:28:59;;;;;;;;;;;14.60;99.90;;;;;;8334482;28;19967;-67
2021/05/16 14:32:59;;;;;;;;;;;14.70;99.90;;;;;;8325830;28;19920;-68
2021/05/16 14:37:01;;;;;;;;;;;14.30;99.90;;;;;;8329054;28;20022;-67
2021/05/16 14:41:02;;;;;;;;;;;14.50;99.90;;;;;;8344637;28;20311;-66
2021/05/16 14:45:03;;;;;;;;;;;14.40;99.90;;;;;;8351101;28;19940;-66
2021/05/16 14:49:03;;;;;;;;;;;14.20;99.90;;;;;;8351831;28;19924;-66
2021/05/16 14:53:04;;;;;;;;;;;13.90;99.90;;;;;;8349957;28;20007;-66
2021/05/16 14:57:05;;;;;;;;;;;13.70;99.90;;;;;;8345344;28;19982;-67
2021/05/16 15:01:06;;;;;;;;;;;13.50;99.90;;;;;;8352741;28;19920;-66
2021/05/16 15:05:06;;;;;;;;;;;13.30;99.90;;;;;;8350695;28;19917;-65
2021/05/16 15:09:07;;;;;;;;;;;13.10;99.90;;;;;;8333085;28;20576;-67
2021/05/16 15:13:07;;;;;;;;;;;12.80;99.90;;;;;;8349097;28;19939;-65
2021/05/16 15:17:08;;;;;;;;;;;12.70;99.90;;;;;;8329244;28;19921;-66
2021/05/16 15:21:09;;;;;;;;;;;12.80;99.90;;;;;;8342758;28;20497;-67
2021/05/16 15:25:10;;;;;;;;;;;13.00;99.90;;;;;;8348854;28;19956;-67
2021/05/16 15:29:10;;;;;;;;;;;13.10;99.90;;;;;;8335116;28;19909;-66
2021/05/16 15:33:11;;;;;;;;;;;13.00;99.90;;;;;;8329684;28;19928;-67
2021/05/16 15:37:11;;;;;;;;;;;13.00;99.90;;;;;;8344915;28;19924;-66
2021/05/16 15:41:12;;;;;;;;;;;13.00;99.90;;;;;;8334679;28;19939;-67
2021/05/16 15:45:12;;;;;;;;;;;12.90;99.90;;;;;;8351117;28;19912;-67
2021/05/16 15:49:13;;;;;;;;;;;12.50;99.90;;;;;;8351222;28;19920;-66
2021/05/16 15:53:13;;;;;;;;;;;12.40;99.90;;;;;;8349926;28;19920;-67
2021/05/16 15:57:17;;;;;;;;;;;12.40;99.90;;;;;;8342081;28;19923;-66
2021/05/16 16:01:19;;;;;;;;;;;12.30;99.90;;;;;;8348947;28;19917;-66
2021/05/16 16:05:20;;;;;;;;;;;12.20;99.90;;;;;;8329047;28;19943;-69
2021/05/16 16:09:20;;;;;;;;;;;12.10;99.90;;;;;;8354802;28;19916;-69
2021/05/16 16:13:21;;;;;;;;;;;12.00;99.90;;;;;;8346214;28;20311;-69
2021/05/16 16:17:21;;;;;;;;;;;11.90;99.90;;;;;;8336518;28;20588;-69
2021/05/16 16:21:22;;;;;;;;;;;11.80;99.90;;;;;;8328278;28;19917;-70
2021/05/16 16:25:22;;;;;;;;;;;11.70;99.90;;;;;;8331992;28;19920;-69
2021/05/16 16:29:23;;;;;;;;;;;11.60;99.90;;;;;;8360455;28;19939;-70
2021/05/16 16:33:23;;;;;;;;;;;11.60;99.90;;;;;;8357418;28;20306;-70
2021/05/16 16:37:28;;;;;;;;;;;11.50;99.90;;;;;;8360499;28;19913;-69
2021/05/16 16:41:29;;;;;;;;;;;11.50;99.90;;;;;;8360634;28;19913;-70
2021/05/16 16:45:29;;;;;;;;;;;11.50;99.90;;;;;;8350341;28;19912;-65
2021/05/16 16:49:30;;;;;;;;;;;11.40;99.90;;;;;;8335139;28;19952;-66
2021/05/16 16:53:30;;;;;;;;;;;11.50;99.90;;;;;;8332062;28;19921;-66
2021/05/16 16:57:31;;;;;;;;;;;11.50;99.90;;;;;;8328750;28;19979;-66
2021/05/16 17:01:32;;;;;;;;;;;11.40;99.90;;;;;;8334661;28;19921;-66
2021/05/16 17:05:33;;;;;;;;;;;11.40;99.90;;;;;;8344781;28;19960;-67
2021/05/16 17:09:34;;;;;;;;;;;11.20;99.90;;;;;;8336255;28;20398;-67
2021/05/16 17:13:34;;;;;;;;;;;11.30;99.90;;;;;;8316003;28;19916;-67
2021/05/16 17:17:35;;;;;;;;;;;11.30;99.90;;;;;;8313464;28;20651;-67
2021/05/16 17:21:35;;;;;;;;;;;11.30;99.90;;;;;;8347856;28;19913;-69
2021/05/16 17:25:38;;;;;;;;;;;11.20;99.90;;;;;;8350147;28;20364;-68
2021/05/16 17:29:39;;;;;;;;;;;11.20;99.90;;;;;;8333731;28;19963;-67
2021/05/16 17:33:39;;;;;;;;;;;11.20;99.90;;;;;;8349123;28;19917;-67
2021/05/16 17:37:40;;;;;;;;;;;11.20;99.90;;;;;;8352163;28;19980;-67
2021/05/16 17:41:40;;;;;;;;;;;11.10;99.90;;;;;;8355593;28;19913;-69
2021/05/16 17:45:41;;;;;;;;;;;11.00;99.90;;;;;;8354131;28;20303;-69
2021/05/16 17:49:41;;;;;;;;;;;11.10;99.90;;;;;;8353615;28;20309;-67
2021/05/16 17:53:43;;;;;;;;;;;11.00;99.90;;;;;;8342351;28;19932;-67
2021/05/16 17:57:43;;;;;;;;;;;11.00;99.90;;;;;;8330524;28;19921;-67
2021/05/16 18:01:45;;;;;;;;;;;11.00;99.90;;;;;;8345582;28;20011;-68
2021/05/16 18:05:46;;;;;;;;;;;11.00;99.90;;;;;;8343606;28;19917;-68
2021/05/16 18:09:47;;;;;;;;;;;11.00;99.90;;;;;;8344829;28;19917;-68
2021/05/16 18:13:48;;;;;;;;;;;11.00;99.90;;;;;;8330364;28;19947;-67
2021/05/16 18:17:50;;;;;;;;;;;11.10;99.90;;;;;;8349033;28;20342;-67
2021/05/16 18:21:51;;;;;;;;;;;11.10;99.90;;;;;;8332074;28;19943;-68
2021/05/16 18:25:52;;;;;;;;;;;11.10;99.90;;;;;;8324919;28;20285;-67
2021/05/16 18:29:52;;;;;;;;;;;10.90;99.90;;;;;;8338114;28;19960;-67
2021/05/16 18:33:53;;;;;;;;;;;10.80;99.90;;;;;;8329452;28;19920;-67
2021/05/16 18:37:53;;;;;;;;;;;10.60;99.90;;;;;;8327356;28;19945;-67
2021/05/16 18:41:54;;;;;;;;;;;10.50;99.90;;;;;;8344785;28;20000;-67
2021/05/16 18:45:55;;;;;;;;;;;10.40;99.90;;;;;;8340698;28;19952;-67
2021/05/16 18:49:55;;;;;;;;;;;10.30;99.90;;;;;;8328823;28;19913;-67
2021/05/16 18:53:56;;;;;;;;;;;10.20;99.90;;;;;;8341347;28;19913;-66
2021/05/16 18:57:56;;;;;;;;;;;10.20;99.90;;;;;;8340249;28;20004;-67
2021/05/16 19:01:57;;;;;;;;;;;10.20;99.90;;;;;;8330263;28;19971;-67
2021/05/16 19:05:57;;;;;;;;;;;10.20;99.90;;;;;;8329005;28;19924;-66
2021/05/16 19:09:58;;;;;;;;;;;10.10;99.90;;;;;;8350099;28;19913;-67
2021/05/16 19:13:59;;;;;;;;;;;10.20;99.90;;;;;;8341750;28;19935;-68
2021/05/16 19:17:59;;;;;;;;;;;10.10;99.90;;;;;;8342668;28;19943;-68
2021/05/16 19:22:00;;;;;;;;;;;10.20;99.90;;;;;;8341399;28;19990;-67
2021/05/16 19:26:01;;;;;;;;;;;10.30;99.90;;;;;;8332308;28;19912;-68
2021/05/16 19:30:03;;;;;;;;;;;10.30;99.90;;;;;;8354869;28;19932;-68
2021/05/16 19:34:04;;;;;;;;;;;10.30;99.90;;;;;;8345659;28;20401;-68
2021/05/16 19:38:04;;;;;;;;;;;10.20;99.90;;;;;;8341974;28;19924;-68
2021/05/16 19:42:05;;;;;;;;;;;10.30;99.90;;;;;;8341323;28;20420;-68
2021/05/16 19:46:05;;;;;;;;;;;10.40;99.90;;;;;;8337970;28;20371;-67
2021/05/16 19:50:07;;;;;;;;;;;10.30;99.90;;;;;;8339003;28;20019;-67
2021/05/16 19:54:07;;;;;;;;;;;10.30;99.90;;;;;;8346573;28;19913;-68
2021/05/16 19:58:08;;;;;;;;;;;10.30;99.90;;;;;;8341380;28;20338;-68
2021/05/16 20:02:09;;;;;;;;;;;10.40;99.90;;;;;;8356428;28;19917;-68
2021/05/16 20:06:09;;;;;;;;;;;10.40;99.90;;;;;;8357978;28;19920;-68
2021/05/16 20:10:11;;;;;;;;;;;10.30;99.90;;;;;;8340227;28;19916;-68
2021/05/16 20:14:12;;;;;;;;;;;10.50;99.90;;;;;;8357347;28;20350;-68
2021/05/16 20:18:13;;;;;;;;;;;10.60;99.90;;;;;;8328803;28;19924;-68
2021/05/16 20:22:13;;;;;;;;;;;10.40;99.90;;;;;;8341166;28;19927;-68
2021/05/16 20:26:14;;;;;;;;;;;10.40;99.90;;;;;;8343805;28;19909;-68
2021/05/16 20:30:19;;;;;;;;;;;10.30;99.90;;;;;;8343813;28;19916;-68
2021/05/16 20:34:19;;;;;;;;;;;10.10;99.90;;;;;;8350995;28;20377;-69
2021/05/16 20:38:20;;;;;;;;;;;10.00;99.90;;;;;;8335554;28;19963;-69
2021/05/16 20:42:20;;;;;;;;;;;9.90;99.90;;;;;;8343598;28;20402;-69
2021/05/16 20:46:21;;;;;;;;;;;10.00;99.90;;;;;;8343262;28;20392;-68
2021/05/16 20:50:22;;;;;;;;;;;10.10;99.90;;;;;;8340678;28;19920;-68
2021/05/16 20:54:23;;;;;;;;;;;9.90;99.90;;;;;;8341301;28;20047;-68
2021/05/16 20:58:24;;;;;;;;;;;9.90;99.90;;;;;;8342343;28;19913;-68
2021/05/16 21:02:25;;;;;;;;;;;9.80;99.90;;;;;;8349982;28;20012;-68
2021/05/16 21:06:25;;;;;;;;;;;9.80;99.90;;;;;;8359568;28;19916;-68
2021/05/16 21:10:29;;;;;;;;;;;9.70;99.90;;;;;;8359942;28;19915;-68
2021/05/16 21:14:29;;;;;;;;;;;9.70;99.90;;;;;;8341820;28;19944;-68
2021/05/16 21:18:30;;;;;;;;;;;9.80;99.90;;;;;;8359684;28;19920;-68
2021/05/16 21:22:30;;;;;;;;;;;9.70;99.90;;;;;;8359519;28;19908;-68
2021/05/16 21:26:31;;;;;;;;;;;9.70;99.90;;;;;;8341800;28;20347;-68
2021/05/16 21:30:32;;;;;;;;;;;9.60;99.90;;;;;;8359660;28;19917;-68
2021/05/16 21:34:32;;;;;;;;;;;9.70;99.90;;;;;;8359295;28;19940;-68
2021/05/16 21:38:33;;;;;;;;;;;9.70;99.90;;;;;;8359491;28;19913;-68
2021/05/16 21:42:34;;;;;;;;;;;9.70;99.90;;;;;;8359492;28;19909;-68
2021/05/16 21:46:34;;;;;;;;;;;9.70;99.90;;;;;;8359185;28;19908;-68
2021/05/16 21:50:35;;;;;;;;;;;9.60;99.90;;;;;;8359233;28;19916;-68
2021/05/16 21:54:35;;;;;;;;;;;9.60;99.90;;;;;;8358810;28;19916;-68
2021/05/16 21:58:36;;;;;;;;;;;9.70;99.90;;;;;;8358964;28;19960;-68
2021/05/16 22:02:36;;;;;;;;;;;9.60;99.90;;;;;;8358802;28;20322;-68
2021/05/16 22:06:37;;;;;;;;;;;9.60;99.90;;;;;;8361559;28;19917;-68
2021/05/16 22:10:37;;;;;;;;;;;9.60;99.90;;;;;;8365533;28;19908;-68
2021/05/16 22:14:38;;;;;;;;;;;9.50;99.90;;;;;;8365126;28;19915;-68
2021/05/16 22:18:38;;;;;;;;;;;9.40;99.90;;;;;;8365150;28;19920;-68
2021/05/16 22:22:39;;;;;;;;;;;9.30;99.90;;;;;;8364823;28;19909;-68
2021/05/16 22:26:39;;;;;;;;;;;9.30;99.90;;;;;;8365076;28;19909;-68
2021/05/16 22:30:42;;;;;;;;;;;9.30;99.90;;;;;;8364597;28;21698;-68
2021/05/16 22:34:42;;;;;;;;;;;9.30;99.90;;;;;;8364206;28;19913;-68
2021/05/16 22:38:43;;;;;;;;;;;9.10;99.90;;;;;;8364455;28;19923;-68
2021/05/16 22:42:43;;;;;;;;;;;9.10;99.90;;;;;;8364375;28;19916;-68
2021/05/16 22:46:44;;;;;;;;;;;9.00;99.90;;;;;;8345717;28;20007;-68
2021/05/16 22:50:44;;;;;;;;;;;9.00;99.90;;;;;;8361572;28;19919;-68
2021/05/16 22:54:45;;;;;;;;;;;9.00;99.90;;;;;;8363850;28;19952;-68
2021/05/16 22:58:45;;;;;;;;;;;8.90;99.90;;;;;;8364123;28;19916;-68
2021/05/16 23:02:46;;;;;;;;;;;8.90;99.90;;;;;;8363423;28;20318;-68
2021/05/16 23:06:46;;;;;;;;;;;9.00;99.90;;;;;;8363597;28;20397;-68
2021/05/16 23:10:48;;;;;;;;;;;8.90;99.90;;;;;;8363857;28;19909;-68
2021/05/16 23:14:48;;;;;;;;;;;8.90;99.90;;;;;;8345456;28;20394;-68
2021/05/16 23:18:49;;;;;;;;;;;8.80;99.90;;;;;;8362998;28;19917;-68
2021/05/16 23:22:50;;;;;;;;;;;8.80;99.90;;;;;;8363084;28;19908;-68
2021/05/16 23:26:51;;;;;;;;;;;8.80;99.90;;;;;;8363470;28;20407;-67
2021/05/16 23:30:51;;;;;;;;;;;8.80;99.90;;;;;;8362995;28;19909;-68